createdAt,value
2023-02-11T00:01:43.589Z,-0.40
2023-02-11T00:04:10.829Z,-0.40
2023-02-11T00:06:38.210Z,-0.50
2023-02-11T00:09:06.709Z,-0.50
2023-02-11T00:11:34.870Z,-0.50
2023-02-11T00:14:05.936Z,-0.60
2023-02-11T00:16:33.651Z,-0.60
2023-02-11T00:19:08.686Z,-0.60
2023-02-11T00:21:39.322Z,-0.70
2023-02-11T00:24:09.731Z,-0.70
2023-02-11T00:26:45.643Z,-0.80
2023-02-11T00:29:13.365Z,-0.80
2023-02-11T00:31:41.379Z,-0.88
2023-02-11T00:34:12.321Z,-0.90
2023-02-11T00:36:49.661Z,-0.90
2023-02-11T00:39:22.778Z,-1.00
2023-02-11T00:41:54.995Z,-1.00
2023-02-11T00:44:22.806Z,-1.00
2023-02-11T00:46:53.100Z,-1.08
2023-02-11T00:49:25.369Z,-1.10
2023-02-11T00:51:59.481Z,-1.10
2023-02-11T00:54:32.276Z,-1.10
2023-02-11T00:57:02.794Z,-1.10
2023-02-11T00:59:35.777Z,-1.10
2023-02-11T01:02:18.062Z,-1.10
2023-02-11T01:04:49.022Z,-1.16
2023-02-11T01:07:34.094Z,-1.16
2023-02-11T01:10:04.365Z,-1.20
2023-02-11T01:12:36.479Z,-1.20
2023-02-11T01:15:30.616Z,-1.20
2023-02-11T01:18:04.472Z,-1.24
2023-02-11T01:20:34.918Z,-1.26
2023-02-11T01:23:02.308Z,-1.30
2023-02-11T01:25:32.538Z,-1.30
2023-02-11T01:28:02.817Z,-1.32
2023-02-11T01:30:35.173Z,-1.40
2023-02-11T01:33:07.245Z,-1.40
2023-02-11T01:35:37.051Z,-1.40
2023-02-11T01:38:07.094Z,-1.40
2023-02-11T01:40:39.644Z,-1.42
2023-02-11T01:43:15.495Z,-1.44
2023-02-11T01:45:47.950Z,-1.46
2023-02-11T01:48:27.202Z,-1.50
2023-02-11T01:51:09.250Z,-1.50
2023-02-11T01:54:00.719Z,-1.50
2023-02-11T01:56:56.490Z,-1.50
2023-02-11T01:59:57.712Z,-1.50
2023-02-11T02:02:44.259Z,-1.50
2023-02-11T02:05:20.664Z,-1.50
2023-02-11T02:08:21.963Z,-1.50
2023-02-11T02:10:56.581Z,-1.50
2023-02-11T02:13:25.508Z,-1.50
2023-02-11T02:16:05.203Z,-1.56
2023-02-11T02:18:49.033Z,-1.60
2023-02-11T02:21:56.909Z,-1.60
2023-02-11T02:25:01.251Z,-1.60
2023-02-11T02:28:12.662Z,-1.62
2023-02-11T02:31:12.063Z,-1.70
2023-02-11T02:34:19.210Z,-1.70
2023-02-11T02:37:28.647Z,-1.70
2023-02-11T02:40:02.237Z,-1.70
2023-02-11T02:42:31.245Z,-1.70
2023-02-11T02:45:01.893Z,-1.80
2023-02-11T02:47:32.609Z,-1.80
2023-02-11T02:50:00.364Z,-1.80
2023-02-11T02:53:05.694Z,-1.86
2023-02-11T02:56:23.555Z,-1.90
2023-02-11T02:59:47.229Z,-1.90
2023-02-11T03:02:57.687Z,-1.96
2023-02-11T03:05:49.894Z,-2.00
2023-02-11T03:08:40.502Z,-2.00
2023-02-11T03:11:15.758Z,-2.00
2023-02-11T03:13:45.275Z,-2.00
2023-02-11T03:16:23.238Z,-2.00
2023-02-11T03:18:56.677Z,-1.94
2023-02-11T03:21:28.939Z,-2.00
2023-02-11T03:24:10.853Z,-1.90
2023-02-11T03:26:51.747Z,-1.90
2023-02-11T03:29:41.492Z,-1.90
2023-02-11T03:32:25.131Z,-1.90
2023-02-11T03:35:41.737Z,-1.90
2023-02-11T03:38:21.807Z,-1.88
2023-02-11T03:40:54.431Z,-1.80
2023-02-11T03:43:49.063Z,-1.80
2023-02-11T03:46:23.992Z,-1.80
2023-02-11T03:49:03.128Z,-1.80
2023-02-11T03:51:36.646Z,-1.80
2023-02-11T03:54:23.533Z,-1.80
2023-02-11T03:57:03.179Z,-1.80
2023-02-11T03:59:30.842Z,-1.80
2023-02-11T04:01:59.685Z,-1.82
2023-02-11T04:04:31.690Z,-1.80
2023-02-11T04:07:03.952Z,-1.84
2023-02-11T04:09:36.330Z,-1.84
2023-02-11T04:12:04.182Z,-1.90
2023-02-11T04:14:37.903Z,-1.90
2023-02-11T04:17:08.748Z,-1.90
2023-02-11T04:19:39.591Z,-1.90
2023-02-11T04:22:10.754Z,-1.90
2023-02-11T04:24:40.968Z,-1.90
2023-02-11T04:27:13.927Z,-1.90
2023-02-11T04:29:46.714Z,-1.90
2023-02-11T04:32:20.083Z,-1.80
2023-02-11T04:34:52.580Z,-1.80
2023-02-11T04:37:28.530Z,-1.80
2023-02-11T04:39:59.265Z,-1.70
2023-02-11T04:42:28.878Z,-1.70
2023-02-11T04:45:05.657Z,-1.72
2023-02-11T04:47:38.431Z,-1.80
2023-02-11T04:50:06.711Z,-1.74
2023-02-11T04:52:34.052Z,-1.78
2023-02-11T04:55:01.771Z,-1.78
2023-02-11T04:57:28.944Z,-1.70
2023-02-11T04:59:56.486Z,-1.80
2023-02-11T05:02:26.343Z,-1.80
2023-02-11T05:04:59.718Z,-1.80
2023-02-11T05:07:32.361Z,-1.80
2023-02-11T05:09:59.786Z,-1.80
2023-02-11T05:12:36.770Z,-1.80
2023-02-11T05:15:07.309Z,-1.80
2023-02-11T05:17:40.881Z,-1.80
2023-02-11T05:20:09.552Z,-1.80
2023-02-11T05:22:37.028Z,-1.80
2023-02-11T05:25:08.253Z,-1.80
2023-02-11T05:27:36.325Z,-1.80
2023-02-11T05:30:07.106Z,-1.70
2023-02-11T05:32:34.740Z,-1.78
2023-02-11T05:35:06.011Z,-1.70
2023-02-11T05:37:39.618Z,-1.70
2023-02-11T05:40:10.535Z,-1.70
2023-02-11T05:42:41.134Z,-1.70
2023-02-11T05:45:12.079Z,-1.70
2023-02-11T05:47:39.440Z,-1.70
2023-02-11T05:50:07.152Z,-1.70
2023-02-11T05:52:36.921Z,-1.70
2023-02-11T05:55:25.483Z,-1.70
2023-02-11T05:57:55.112Z,-1.70
2023-02-11T06:00:25.379Z,-1.70
2023-02-11T06:02:52.769Z,-1.70
2023-02-11T06:05:23.206Z,-1.70
2023-02-11T06:07:50.753Z,-1.66
2023-02-11T06:10:21.071Z,-1.62
2023-02-11T06:12:50.880Z,-1.60
2023-02-11T06:15:21.446Z,-1.60
2023-02-11T06:17:48.963Z,-1.60
2023-02-11T06:20:20.030Z,-1.60
2023-02-11T06:22:47.490Z,-1.60
2023-02-11T06:25:15.144Z,-1.60
2023-02-11T06:27:42.534Z,-1.58
2023-02-11T06:30:11.215Z,-1.50
2023-02-11T06:32:44.846Z,-1.50
2023-02-11T06:35:14.867Z,-1.50
2023-02-11T06:37:47.994Z,-1.42
2023-02-11T06:40:17.687Z,-1.40
2023-02-11T06:42:45.073Z,-1.38
2023-02-11T06:45:13.544Z,-1.30
2023-02-11T06:47:50.287Z,-1.26
2023-02-11T06:50:21.028Z,-1.20
2023-02-11T06:52:48.374Z,-1.10
2023-02-11T06:55:15.940Z,-1.02
2023-02-11T06:57:45.789Z,-1.00
2023-02-11T07:00:14.563Z,-0.90
2023-02-11T07:02:44.263Z,-0.80
2023-02-11T07:05:12.118Z,-0.66
2023-02-11T07:07:39.775Z,-0.58
2023-02-11T07:10:09.679Z,-0.42
2023-02-11T07:12:37.652Z,-0.30
2023-02-11T07:15:11.139Z,-0.14
2023-02-11T07:17:41.273Z,0.00
2023-02-11T07:20:12.444Z,0.10
2023-02-11T07:22:42.738Z,0.20
2023-02-11T07:25:10.500Z,0.30
2023-02-11T07:27:40.727Z,0.40
2023-02-11T07:30:09.346Z,0.50
2023-02-11T07:32:40.094Z,0.60
2023-02-11T07:35:08.042Z,0.70
2023-02-11T07:37:36.320Z,0.80
2023-02-11T07:40:04.670Z,0.90
2023-02-11T07:42:32.252Z,1.00
2023-02-11T07:44:59.611Z,1.10
2023-02-11T07:47:34.300Z,1.20
2023-02-11T07:50:01.964Z,1.30
2023-02-11T07:52:32.285Z,1.40
2023-02-11T07:54:59.866Z,1.50
2023-02-11T07:57:30.182Z,1.60
2023-02-11T08:00:04.874Z,1.70
2023-02-11T08:02:42.820Z,1.80
2023-02-11T08:05:13.734Z,1.82
2023-02-11T08:07:41.318Z,1.88
2023-02-11T08:10:09.062Z,1.86
2023-02-11T08:12:38.495Z,1.90
2023-02-11T08:15:06.598Z,1.90
2023-02-11T08:17:40.098Z,1.92
2023-02-11T08:20:17.518Z,2.00
2023-02-11T08:22:59.312Z,2.06
2023-02-11T08:25:45.711Z,2.10
2023-02-11T08:28:25.586Z,2.20
2023-02-11T08:31:01.583Z,2.28
2023-02-11T08:33:46.888Z,2.30
2023-02-11T08:36:34.349Z,2.30
2023-02-11T08:39:35.356Z,2.30
2023-02-11T08:42:19.516Z,2.40
2023-02-11T08:44:52.603Z,2.50
2023-02-11T08:47:20.110Z,2.60
2023-02-11T08:50:03.996Z,2.76
2023-02-11T08:52:45.111Z,3.08
2023-02-11T08:55:17.443Z,3.38
2023-02-11T08:57:51.533Z,3.56
2023-02-11T09:00:32.527Z,3.60
2023-02-11T09:03:03.131Z,3.78
2023-02-11T09:06:28.175Z,3.90
2023-02-11T09:09:13.708Z,4.00
2023-02-11T09:11:57.412Z,4.00
2023-02-11T09:14:38.696Z,4.00
2023-02-11T09:17:09.674Z,4.00
2023-02-11T09:19:48.728Z,4.02
2023-02-11T09:22:37.078Z,4.08
2023-02-11T09:25:16.824Z,4.18
2023-02-11T09:27:44.791Z,4.30
2023-02-11T09:30:15.734Z,4.40
2023-02-11T09:32:56.093Z,4.52
2023-02-11T09:35:23.410Z,4.70
2023-02-11T09:37:51.109Z,4.88
2023-02-11T09:40:20.292Z,5.06
2023-02-11T09:43:02.344Z,5.16
2023-02-11T09:45:34.218Z,5.30
2023-02-11T09:48:22.673Z,5.40
2023-02-11T09:51:00.608Z,5.48
2023-02-11T09:53:41.266Z,5.60
2023-02-11T09:56:15.404Z,5.66
2023-02-11T09:58:44.824Z,5.84
2023-02-11T10:01:21.855Z,5.92
2023-02-11T10:04:19.193Z,6.10
2023-02-11T10:06:55.343Z,6.18
2023-02-11T10:09:57.486Z,6.20
2023-02-11T10:13:21.798Z,6.30
2023-02-11T10:16:18.127Z,6.50
2023-02-11T10:18:57.015Z,6.60
2023-02-11T10:21:46.650Z,6.70
2023-02-11T10:24:17.837Z,6.78
2023-02-11T10:26:46.107Z,7.08
2023-02-11T10:29:42.247Z,6.90
2023-02-11T10:32:35.778Z,6.72
2023-02-11T10:35:19.095Z,6.70
2023-02-11T10:37:49.683Z,6.70
2023-02-11T10:40:29.489Z,6.60
2023-02-11T10:43:04.350Z,6.60
2023-02-11T10:45:46.576Z,6.50
2023-02-11T10:48:41.750Z,6.48
2023-02-11T10:51:34.211Z,6.40
2023-02-11T10:54:04.430Z,6.30
2023-02-11T10:56:37.515Z,6.30
2023-02-11T10:59:43.482Z,6.30
2023-02-11T11:02:38.943Z,6.56
2023-02-11T11:05:21.086Z,6.62
2023-02-11T11:08:15.732Z,6.74
2023-02-11T11:11:06.688Z,6.96
2023-02-11T11:13:54.418Z,7.10
2023-02-11T11:16:37.390Z,7.12
2023-02-11T11:19:10.425Z,7.20
2023-02-11T11:21:51.288Z,7.28
2023-02-11T11:24:43.030Z,7.40
2023-02-11T11:27:22.183Z,7.54
2023-02-11T11:29:58.342Z,7.58
2023-02-11T11:32:33.341Z,7.60
2023-02-11T11:35:06.071Z,7.60
2023-02-11T11:37:42.385Z,7.60
2023-02-11T11:40:16.121Z,7.44
2023-02-11T11:42:44.554Z,7.30
2023-02-11T11:45:23.072Z,7.22
2023-02-11T11:48:37.296Z,7.20
2023-02-11T11:51:23.958Z,7.38
2023-02-11T11:54:04.898Z,7.30
2023-02-11T11:56:45.264Z,7.30
2023-02-11T11:59:18.996Z,7.36
2023-02-11T12:02:32.118Z,7.40
2023-02-11T12:05:24.549Z,7.50
2023-02-11T12:07:59.679Z,7.60
2023-02-11T12:10:34.086Z,7.68
2023-02-11T12:13:53.267Z,7.70
2023-02-11T12:17:11.732Z,8.10
2023-02-11T12:20:34.788Z,8.14
2023-02-11T12:24:05.110Z,8.30
2023-02-11T12:26:45.272Z,8.42
2023-02-11T12:30:22.469Z,8.48
2023-02-11T12:33:40.160Z,8.78
2023-02-11T12:36:46.570Z,8.88
2023-02-11T12:39:58.255Z,8.80
2023-02-11T12:43:09.126Z,8.82
2023-02-11T12:46:11.849Z,8.76
2023-02-11T12:49:08.217Z,8.70
2023-02-11T12:52:11.956Z,8.60
2023-02-11T12:54:59.823Z,8.52
2023-02-11T12:57:37.649Z,8.50
2023-02-11T13:00:28.094Z,8.40
2023-02-11T13:03:19.502Z,8.20
2023-02-11T13:06:21.688Z,8.18
2023-02-11T13:09:41.151Z,8.20
2023-02-11T13:12:35.954Z,8.20
2023-02-11T13:15:26.771Z,8.02
2023-02-11T13:18:40.597Z,7.94
2023-02-11T13:21:33.713Z,7.90
2023-02-11T13:24:32.962Z,7.80
2023-02-11T13:27:18.763Z,7.72
2023-02-11T13:30:27.294Z,7.60
2023-02-11T13:33:03.547Z,7.60
2023-02-11T13:35:43.905Z,7.50
2023-02-11T13:38:33.289Z,7.46
2023-02-11T13:41:21.301Z,7.40
2023-02-11T13:44:25.345Z,7.40
2023-02-11T13:47:23.078Z,7.40
2023-02-11T13:50:11.093Z,7.40
2023-02-11T13:52:58.986Z,7.38
2023-02-11T13:55:28.108Z,7.30
2023-02-11T13:58:10.960Z,7.30
2023-02-11T14:00:49.111Z,7.30
2023-02-11T14:03:49.874Z,7.32
2023-02-11T14:06:46.761Z,7.46
2023-02-11T14:09:23.527Z,7.40
2023-02-11T14:12:33.662Z,7.30
2023-02-11T14:15:27.969Z,7.40
2023-02-11T14:17:55.130Z,7.40
2023-02-11T14:21:27.568Z,7.30
2023-02-11T14:24:13.211Z,7.40
2023-02-11T14:26:59.595Z,7.30
2023-02-11T14:30:11.860Z,7.22
2023-02-11T14:33:26.777Z,7.20
2023-02-11T14:36:21.153Z,7.20
2023-02-11T14:39:10.016Z,7.20
2023-02-11T14:41:44.359Z,7.10
2023-02-11T14:44:30.378Z,7.04
2023-02-11T14:46:59.632Z,7.00
2023-02-11T14:49:40.890Z,7.00
2023-02-11T14:52:23.608Z,7.00
2023-02-11T14:54:57.198Z,7.00
2023-02-11T14:57:30.916Z,6.96
2023-02-11T15:00:06.287Z,6.90
2023-02-11T15:02:50.424Z,6.90
2023-02-11T15:05:32.408Z,6.90
2023-02-11T15:08:09.972Z,6.90
2023-02-11T15:10:45.387Z,6.90
2023-02-11T15:13:27.302Z,6.90
2023-02-11T15:16:29.575Z,6.90
2023-02-11T15:19:17.443Z,6.96
2023-02-11T15:21:50.855Z,6.94
2023-02-11T15:24:39.402Z,6.92
2023-02-11T15:27:18.730Z,6.96
2023-02-11T15:29:55.254Z,6.94
2023-02-11T15:32:29.097Z,6.90
2023-02-11T15:35:02.510Z,6.90
2023-02-11T15:37:33.100Z,6.94
2023-02-11T15:40:32.544Z,6.92
2023-02-11T15:43:10.110Z,6.98
2023-02-11T15:46:06.262Z,6.92
2023-02-11T15:48:43.796Z,6.98
2023-02-11T15:51:29.483Z,6.90
2023-02-11T15:54:30.069Z,6.88
2023-02-11T15:57:11.018Z,6.80
2023-02-11T16:00:04.619Z,6.78
2023-02-11T16:02:45.782Z,6.78
2023-02-11T16:05:35.163Z,6.70
2023-02-11T16:08:32.846Z,6.66
2023-02-11T16:11:08.973Z,6.60
2023-02-11T16:13:50.113Z,6.50
2023-02-11T16:16:31.768Z,6.50
2023-02-11T16:19:06.234Z,6.50
2023-02-11T16:21:54.992Z,6.40
2023-02-11T16:24:28.255Z,6.40
2023-02-11T16:27:07.006Z,6.30
2023-02-11T16:29:47.991Z,6.30
2023-02-11T16:32:26.665Z,6.20
2023-02-11T16:34:58.090Z,6.20
2023-02-11T16:37:37.212Z,6.18
2023-02-11T16:40:09.995Z,6.10
2023-02-11T16:42:40.114Z,6.10
2023-02-11T16:45:09.024Z,6.02
2023-02-11T16:47:48.413Z,6.00
2023-02-11T16:50:25.639Z,6.00
2023-02-11T16:52:55.953Z,6.00
2023-02-11T16:55:26.160Z,6.00
2023-02-11T16:57:59.081Z,5.92
2023-02-11T17:00:38.861Z,5.90
2023-02-11T17:03:23.259Z,5.90
2023-02-11T17:05:55.992Z,5.80
2023-02-11T17:08:26.958Z,5.80
2023-02-11T17:10:57.521Z,5.78
2023-02-11T17:13:34.275Z,5.78
2023-02-11T17:16:30.294Z,5.80
2023-02-11T17:19:02.469Z,5.80
2023-02-11T17:21:33.930Z,5.80
2023-02-11T17:24:08.253Z,5.80
2023-02-11T17:26:43.834Z,5.80
2023-02-11T17:29:21.959Z,5.76
2023-02-11T17:31:53.372Z,5.70
2023-02-11T17:34:24.607Z,5.66
2023-02-11T17:37:00.330Z,5.60
2023-02-11T17:39:42.854Z,5.60
2023-02-11T17:42:12.060Z,5.60
2023-02-11T17:44:47.815Z,5.58
2023-02-11T17:47:20.858Z,5.60
2023-02-11T17:49:55.836Z,5.50
2023-02-11T17:52:24.544Z,5.50
2023-02-11T17:54:51.978Z,5.48
2023-02-11T17:57:19.412Z,5.40
2023-02-11T17:59:49.026Z,5.40
2023-02-11T18:02:16.846Z,5.40
2023-02-11T18:04:44.249Z,5.36
2023-02-11T18:07:14.768Z,5.40
2023-02-11T18:09:42.647Z,5.40
2023-02-11T18:12:11.324Z,5.36
2023-02-11T18:14:46.870Z,5.40
2023-02-11T18:17:14.404Z,5.40
2023-02-11T18:19:43.113Z,5.40
2023-02-11T18:22:15.157Z,5.42
2023-02-11T18:24:45.191Z,5.44
2023-02-11T18:27:13.478Z,5.50
2023-02-11T18:29:44.100Z,5.50
2023-02-11T18:32:17.113Z,5.50
2023-02-11T18:34:56.526Z,5.50
2023-02-11T18:37:26.307Z,5.50
2023-02-11T18:39:58.919Z,5.50
2023-02-11T18:42:48.592Z,5.50
2023-02-11T18:45:24.250Z,5.50
2023-02-11T18:47:54.014Z,5.56
2023-02-11T18:50:22.296Z,5.60
2023-02-11T18:52:50.096Z,5.54
2023-02-11T18:55:23.729Z,5.60
2023-02-11T18:57:53.190Z,5.60
2023-02-11T19:00:23.937Z,5.52
2023-02-11T19:02:53.287Z,5.50
2023-02-11T19:05:21.820Z,5.50
2023-02-11T19:07:49.029Z,5.50
2023-02-11T19:10:16.324Z,5.50
2023-02-11T19:12:43.832Z,5.40
2023-02-11T19:15:11.244Z,5.40
2023-02-11T19:17:38.691Z,5.40
2023-02-11T19:20:08.020Z,5.40
2023-02-11T19:22:38.620Z,5.40
2023-02-11T19:25:24.714Z,5.40
2023-02-11T19:28:04.356Z,5.40
2023-02-11T19:30:42.144Z,5.40
2023-02-11T19:33:17.702Z,5.40
2023-02-11T19:35:50.120Z,5.42
2023-02-11T19:38:20.395Z,5.46
2023-02-11T19:41:08.333Z,5.40
2023-02-11T19:43:44.726Z,5.46
2023-02-11T19:46:32.356Z,5.44
2023-02-11T19:49:09.939Z,5.50
2023-02-11T19:51:45.837Z,5.50
2023-02-11T19:54:16.289Z,5.50
2023-02-11T19:57:01.590Z,5.46
2023-02-11T19:59:44.377Z,5.48
2023-02-11T20:02:18.870Z,5.48
2023-02-11T20:04:57.862Z,5.46
2023-02-11T20:07:30.933Z,5.48
2023-02-11T20:10:12.849Z,5.46
2023-02-11T20:12:54.827Z,5.48
2023-02-11T20:15:30.498Z,5.44
2023-02-11T20:18:12.493Z,5.40
2023-02-11T20:21:05.067Z,5.40
2023-02-11T20:23:36.669Z,5.44
2023-02-11T20:26:12.356Z,5.42
2023-02-11T20:28:45.338Z,5.42
2023-02-11T20:31:24.461Z,5.42
2023-02-11T20:34:03.545Z,5.42
2023-02-11T20:37:02.176Z,5.44
2023-02-11T20:40:01.323Z,5.50
2023-02-11T20:42:53.386Z,5.50
2023-02-11T20:45:29.168Z,5.50
2023-02-11T20:48:04.944Z,5.50
2023-02-11T20:50:39.029Z,5.46
2023-02-11T20:53:34.317Z,5.40
2023-02-11T20:56:12.054Z,5.48
2023-02-11T20:58:54.014Z,5.44
2023-02-11T21:01:56.750Z,5.40
2023-02-11T21:04:33.860Z,5.40
2023-02-11T21:07:15.761Z,5.40
2023-02-11T21:09:56.453Z,5.30
2023-02-11T21:12:26.928Z,5.28
2023-02-11T21:15:16.239Z,5.20
2023-02-11T21:18:13.415Z,5.20
2023-02-11T21:20:54.805Z,5.12
2023-02-11T21:23:30.854Z,5.10
2023-02-11T21:26:07.137Z,5.10
2023-02-11T21:29:14.047Z,5.10
2023-02-11T21:32:02.302Z,5.12
2023-02-11T21:34:57.244Z,5.16
2023-02-11T21:37:49.842Z,5.20
2023-02-11T21:40:29.055Z,5.20
2023-02-11T21:43:06.287Z,5.20
2023-02-11T21:45:51.389Z,5.20
2023-02-11T21:48:23.834Z,5.20
2023-02-11T21:51:04.522Z,5.20
2023-02-11T21:53:42.968Z,5.20
2023-02-11T21:56:18.646Z,5.20
2023-02-11T21:58:54.116Z,5.20
2023-02-11T22:01:37.027Z,5.20
2023-02-11T22:04:07.714Z,5.20
2023-02-11T22:06:38.882Z,5.20
2023-02-11T22:09:15.674Z,5.18
2023-02-11T22:11:45.999Z,5.16
2023-02-11T22:14:19.598Z,5.08
2023-02-11T22:16:49.755Z,5.12
2023-02-11T22:19:25.979Z,5.12
2023-02-11T22:21:59.187Z,5.14
2023-02-11T22:24:40.351Z,5.18
2023-02-11T22:27:13.541Z,5.16
2023-02-11T22:29:49.907Z,5.12
2023-02-11T22:32:27.493Z,5.10
2023-02-11T22:35:03.761Z,5.10
2023-02-11T22:37:43.501Z,5.12
2023-02-11T22:40:14.567Z,5.10
2023-02-11T22:42:52.530Z,5.10
2023-02-11T22:45:32.495Z,5.10
2023-02-11T22:48:08.637Z,5.14
2023-02-11T22:50:44.102Z,5.20
2023-02-11T22:53:25.660Z,5.20
2023-02-11T22:56:16.348Z,5.20
2023-02-11T22:58:55.050Z,5.20
2023-02-11T23:01:33.239Z,5.20
2023-02-11T23:04:22.087Z,5.18
2023-02-11T23:06:54.442Z,5.20
2023-02-11T23:09:21.954Z,5.16
2023-02-11T23:12:03.459Z,5.16
2023-02-11T23:14:36.285Z,5.20
2023-02-11T23:17:06.603Z,5.20
2023-02-11T23:19:33.951Z,5.20
2023-02-11T23:22:06.729Z,5.20
2023-02-11T23:24:36.848Z,5.20
2023-02-11T23:27:04.715Z,5.28
2023-02-11T23:29:37.413Z,5.30
2023-02-11T23:32:19.982Z,5.38
2023-02-11T23:34:54.654Z,5.40
2023-02-11T23:37:31.735Z,5.50
2023-02-11T23:39:59.093Z,5.50
2023-02-11T23:42:26.936Z,5.60
2023-02-11T23:45:05.580Z,5.60
2023-02-11T23:47:58.409Z,5.60
2023-02-11T23:50:29.054Z,5.70
2023-02-11T23:53:06.594Z,5.72
2023-02-11T23:55:46.224Z,5.80
2023-02-11T23:58:19.338Z,5.80
